Accueil
METAR-TAF:

METAR-TAF

Aéroports :

Majuro, Îles Marshall

Aéroport international des îles Marshall

latitude: 07-04N, longitude: 171-17E, altitude: 2 m

Observation

Le bulletin a été fait il y a 8 heures et 40 minutes, à 09:52 UTC
Vent 17 kt de nord-est
Température 28°C
Humidité 84%
Pression 1012 hPa
Visibilité: 24.1 km
Quelques nuages à une hauteur de 1500 ft
Nuages épars à une hauteur de 5000 ft
Nuages fragmentés à une hauteur de 30000 ft

METAR: PKMJ 230952Z 04017KT 15SM FEW015 SCT050 BKN300 28/25 A2987 RMK LAST

Heure: 06:32 (18:32 UTC)

Prévision

Le bulletin a été fait il y a 1 heure et 12 minutes, à 17:20 UTC
Prévision valable du 23 à 18 UTC au 24 à 18 UTC
Vent 9 kt de est/nord-est
Visibilité: 10 km
Quelques nuages à une hauteur de 1500 ft
Nuages épars à une hauteur de 12000 ft

TAF: PKMJ 231720Z 2318/2418 07009KT P6SM FEW015 SCT120

Observations et prévisions météorologiques de plus de 4000 aéroports (messages METAR et TAF).

Les stations disponibles sont représentées par des disques jaunes et rouges sur la carte.

Passer la souris dessus pour voir le nom de la station.

Cliquer dessus pour voir les observations et prévisions météorologiques.

Pour changer de carte: cliquez sur les boutons verts avec une croix noire pour zoomer, sur le bouton vert avec un tiret pour effectuer un zoom arrière, ou sur les flèches vertes pour les cartes adjacentes.


METAR-TAF: